sensor_id;sensor_type;location;lat;lon;timestamp;P1;durP1;ratioP1;P2;durP2;ratioP2
14849;SDS011;7517;48.400;11.770;2022-09-01T00:02:03;7.07;;;6.47;;
14849;SDS011;7517;48.400;11.770;2022-09-01T00:04:32;7.00;;;6.30;;
14849;SDS011;7517;48.400;11.770;2022-09-01T00:07:03;6.70;;;6.10;;
14849;SDS011;7517;48.400;11.770;2022-09-01T00:09:33;6.50;;;6.00;;
14849;SDS011;7517;48.400;11.770;2022-09-01T00:12:03;6.33;;;5.90;;
14849;SDS011;7517;48.400;11.770;2022-09-01T00:14:36;6.67;;;6.07;;
14849;SDS011;7517;48.400;11.770;2022-09-01T00:17:06;6.80;;;6.20;;
14849;SDS011;7517;48.400;11.770;2022-09-01T00:19:36;7.13;;;6.10;;
14849;SDS011;7517;48.400;11.770;2022-09-01T00:22:04;7.20;;;6.57;;
14849;SDS011;7517;48.400;11.770;2022-09-01T00:24:33;6.93;;;6.33;;
14849;SDS011;7517;48.400;11.770;2022-09-01T00:27:00;6.93;;;6.33;;
14849;SDS011;7517;48.400;11.770;2022-09-01T00:29:30;6.77;;;6.17;;
14849;SDS011;7517;48.400;11.770;2022-09-01T00:31:57;7.47;;;6.77;;
14849;SDS011;7517;48.400;11.770;2022-09-01T00:34:25;7.87;;;7.07;;
14849;SDS011;7517;48.400;11.770;2022-09-01T00:36:52;7.00;;;6.40;;
14849;SDS011;7517;48.400;11.770;2022-09-01T00:39:19;7.13;;;6.43;;
14849;SDS011;7517;48.400;11.770;2022-09-01T00:41:47;7.67;;;7.00;;
14849;SDS011;7517;48.400;11.770;2022-09-01T00:44:17;7.07;;;6.47;;
14849;SDS011;7517;48.400;11.770;2022-09-01T00:46:48;7.47;;;6.77;;
14849;SDS011;7517;48.400;11.770;2022-09-01T00:49:18;7.23;;;6.57;;
14849;SDS011;7517;48.400;11.770;2022-09-01T00:51:52;7.57;;;6.87;;
14849;SDS011;7517;48.400;11.770;2022-09-01T00:54:26;7.43;;;6.70;;
14849;SDS011;7517;48.400;11.770;2022-09-01T00:56:59;7.73;;;7.03;;
14849;SDS011;7517;48.400;11.770;2022-09-01T00:59:31;7.67;;;6.87;;
14849;SDS011;7517;48.400;11.770;2022-09-01T01:01:58;7.73;;;7.03;;
14849;SDS011;7517;48.400;11.770;2022-09-01T01:04:25;7.27;;;6.67;;
14849;SDS011;7517;48.400;11.770;2022-09-01T01:06:54;7.87;;;7.17;;
14849;SDS011;7517;48.400;11.770;2022-09-01T01:09:26;7.93;;;7.13;;
14849;SDS011;7517;48.400;11.770;2022-09-01T01:11:58;7.77;;;7.17;;
14849;SDS011;7517;48.400;11.770;2022-09-01T01:14:33;7.13;;;6.53;;
14849;SDS011;7517;48.400;11.770;2022-09-01T01:17:14;7.40;;;6.80;;
14849;SDS011;7517;48.400;11.770;2022-09-01T01:19:49;7.07;;;6.57;;
14849;SDS011;7517;48.400;11.770;2022-09-01T01:22:40;7.17;;;6.67;;
14849;SDS011;7517;48.400;11.770;2022-09-01T01:25:33;8.03;;;7.07;;
14849;SDS011;7517;48.400;11.770;2022-09-01T01:28:05;7.67;;;6.97;;
14849;SDS011;7517;48.400;11.770;2022-09-01T01:30:38;7.60;;;6.97;;
14849;SDS011;7517;48.400;11.770;2022-09-01T01:33:08;7.40;;;6.77;;
14849;SDS011;7517;48.400;11.770;2022-09-01T01:35:36;7.70;;;7.00;;
14849;SDS011;7517;48.400;11.770;2022-09-01T01:38:04;7.87;;;7.10;;
14849;SDS011;7517;48.400;11.770;2022-09-01T01:40:34;7.90;;;7.20;;
14849;SDS011;7517;48.400;11.770;2022-09-01T01:43:03;8.13;;;7.33;;
14849;SDS011;7517;48.400;11.770;2022-09-01T01:45:30;7.37;;;6.77;;
14849;SDS011;7517;48.400;11.770;2022-09-01T01:48:01;7.73;;;7.03;;
14849;SDS011;7517;48.400;11.770;2022-09-01T01:50:36;7.27;;;6.67;;
14849;SDS011;7517;48.400;11.770;2022-09-01T01:53:13;7.17;;;6.57;;
14849;SDS011;7517;48.400;11.770;2022-09-01T01:55:43;7.03;;;6.43;;
14849;SDS011;7517;48.400;11.770;2022-09-01T01:58:12;7.43;;;6.83;;
14849;SDS011;7517;48.400;11.770;2022-09-01T02:00:40;7.43;;;6.80;;
14849;SDS011;7517;48.400;11.770;2022-09-01T02:03:11;7.80;;;7.10;;
14849;SDS011;7517;48.400;11.770;2022-09-01T02:05:41;7.57;;;6.97;;
14849;SDS011;7517;48.400;11.770;2022-09-01T02:08:09;7.97;;;7.27;;
14849;SDS011;7517;48.400;11.770;2022-09-01T02:10:40;8.23;;;7.43;;
14849;SDS011;7517;48.400;11.770;2022-09-01T02:13:12;8.03;;;7.27;;
14849;SDS011;7517;48.400;11.770;2022-09-01T02:15:44;8.03;;;7.07;;
14849;SDS011;7517;48.400;11.770;2022-09-01T02:18:18;8.10;;;7.50;;
14849;SDS011;7517;48.400;11.770;2022-09-01T02:20:49;8.23;;;7.47;;
14849;SDS011;7517;48.400;11.770;2022-09-01T02:23:18;7.93;;;7.23;;
14849;SDS011;7517;48.400;11.770;2022-09-01T02:25:51;8.13;;;7.43;;
14849;SDS011;7517;48.400;11.770;2022-09-01T02:28:21;7.70;;;7.00;;
14849;SDS011;7517;48.400;11.770;2022-09-01T02:30:52;8.17;;;7.47;;
14849;SDS011;7517;48.400;11.770;2022-09-01T02:33:24;8.70;;;7.83;;
14849;SDS011;7517;48.400;11.770;2022-09-01T02:35:53;8.30;;;7.30;;
14849;SDS011;7517;48.400;11.770;2022-09-01T02:38:22;7.90;;;7.10;;
14849;SDS011;7517;48.400;11.770;2022-09-01T02:40:54;7.83;;;7.17;;
14849;SDS011;7517;48.400;11.770;2022-09-01T02:43:23;7.57;;;6.90;;
14849;SDS011;7517;48.400;11.770;2022-09-01T02:45:53;8.03;;;7.27;;
14849;SDS011;7517;48.400;11.770;2022-09-01T02:48:24;8.13;;;7.33;;
14849;SDS011;7517;48.400;11.770;2022-09-01T02:50:58;7.83;;;7.20;;
14849;SDS011;7517;48.400;11.770;2022-09-01T02:53:27;8.13;;;7.37;;
14849;SDS011;7517;48.400;11.770;2022-09-01T02:55:56;8.37;;;7.57;;
14849;SDS011;7517;48.400;11.770;2022-09-01T02:58:24;8.40;;;7.60;;
14849;SDS011;7517;48.400;11.770;2022-09-01T03:00:52;8.27;;;7.10;;
14849;SDS011;7517;48.400;11.770;2022-09-01T03:03:27;7.50;;;6.90;;
14849;SDS011;7517;48.400;11.770;2022-09-01T03:06:00;8.27;;;7.43;;
14849;SDS011;7517;48.400;11.770;2022-09-01T03:08:33;11.27;;;7.70;;
14849;SDS011;7517;48.400;11.770;2022-09-01T03:11:05;7.57;;;6.97;;
14849;SDS011;7517;48.400;11.770;2022-09-01T03:13:35;7.87;;;7.17;;
14849;SDS011;7517;48.400;11.770;2022-09-01T03:16:04;7.97;;;7.27;;
14849;SDS011;7517;48.400;11.770;2022-09-01T03:18:33;8.33;;;7.53;;
14849;SDS011;7517;48.400;11.770;2022-09-01T03:21:01;9.03;;;7.90;;
14849;SDS011;7517;48.400;11.770;2022-09-01T03:23:29;8.07;;;7.37;;
14849;SDS011;7517;48.400;11.770;2022-09-01T03:25:59;7.87;;;7.07;;
14849;SDS011;7517;48.400;11.770;2022-09-01T03:28:28;8.77;;;7.93;;
14849;SDS011;7517;48.400;11.770;2022-09-01T03:30:56;8.60;;;7.80;;
14849;SDS011;7517;48.400;11.770;2022-09-01T03:33:25;15.80;;;8.13;;
14849;SDS011;7517;48.400;11.770;2022-09-01T03:35:54;8.00;;;7.20;;
14849;SDS011;7517;48.400;11.770;2022-09-01T03:38:31;8.00;;;7.40;;
14849;SDS011;7517;48.400;11.770;2022-09-01T03:41:00;8.10;;;7.30;;
14849;SDS011;7517;48.400;11.770;2022-09-01T03:43:32;8.03;;;7.10;;
14849;SDS011;7517;48.400;11.770;2022-09-01T03:46:00;8.27;;;7.57;;
14849;SDS011;7517;48.400;11.770;2022-09-01T03:48:27;8.13;;;7.33;;
14849;SDS011;7517;48.400;11.770;2022-09-01T03:50:56;7.60;;;7.00;;
14849;SDS011;7517;48.400;11.770;2022-09-01T03:53:28;7.67;;;7.03;;
14849;SDS011;7517;48.400;11.770;2022-09-01T03:56:02;8.27;;;7.47;;
14849;SDS011;7517;48.400;11.770;2022-09-01T03:58:31;8.07;;;7.27;;
14849;SDS011;7517;48.400;11.770;2022-09-01T04:00:59;7.83;;;7.13;;
14849;SDS011;7517;48.400;11.770;2022-09-01T04:03:30;7.67;;;7.07;;
14849;SDS011;7517;48.400;11.770;2022-09-01T04:05:59;7.80;;;7.07;;
14849;SDS011;7517;48.400;11.770;2022-09-01T04:08:28;8.13;;;7.43;;
14849;SDS011;7517;48.400;11.770;2022-09-01T04:10:56;9.90;;;9.00;;
14849;SDS011;7517;48.400;11.770;2022-09-01T04:13:30;9.17;;;8.33;;
14849;SDS011;7517;48.400;11.770;2022-09-01T04:16:02;8.40;;;7.60;;
14849;SDS011;7517;48.400;11.770;2022-09-01T04:18:34;8.07;;;7.33;;
14849;SDS011;7517;48.400;11.770;2022-09-01T04:21:00;9.13;;;8.33;;
14849;SDS011;7517;48.400;11.770;2022-09-01T04:26:00;8.80;;;8.00;;
14849;SDS011;7517;48.400;11.770;2022-09-01T04:28:35;8.17;;;7.37;;
14849;SDS011;7517;48.400;11.770;2022-09-01T04:31:05;8.20;;;7.47;;
14849;SDS011;7517;48.400;11.770;2022-09-01T04:33:39;8.57;;;7.77;;
14849;SDS011;7517;48.400;11.770;2022-09-01T04:36:13;8.40;;;7.53;;
14849;SDS011;7517;48.400;11.770;2022-09-01T04:38:46;8.00;;;7.03;;
14849;SDS011;7517;48.400;11.770;2022-09-01T04:41:18;7.97;;;7.27;;
14849;SDS011;7517;48.400;11.770;2022-09-01T04:43:47;8.17;;;7.43;;
14849;SDS011;7517;48.400;11.770;2022-09-01T04:46:17;8.33;;;7.60;;
14849;SDS011;7517;48.400;11.770;2022-09-01T04:48:45;8.33;;;7.63;;
14849;SDS011;7517;48.400;11.770;2022-09-01T04:51:13;8.20;;;7.43;;
14849;SDS011;7517;48.400;11.770;2022-09-01T04:53:42;9.93;;;8.53;;
14849;SDS011;7517;48.400;11.770;2022-09-01T04:56:13;8.70;;;8.00;;
14849;SDS011;7517;48.400;11.770;2022-09-01T04:58:43;8.97;;;8.10;;
14849;SDS011;7517;48.400;11.770;2022-09-01T05:01:16;9.43;;;8.50;;
14849;SDS011;7517;48.400;11.770;2022-09-01T05:03:47;9.07;;;8.27;;
14849;SDS011;7517;48.400;11.770;2022-09-01T05:06:26;9.40;;;8.10;;
14849;SDS011;7517;48.400;11.770;2022-09-01T05:08:57;9.20;;;8.33;;
14849;SDS011;7517;48.400;11.770;2022-09-01T05:11:25;8.83;;;7.93;;
14849;SDS011;7517;48.400;11.770;2022-09-01T05:13:53;8.10;;;7.30;;
14849;SDS011;7517;48.400;11.770;2022-09-01T05:16:23;9.47;;;8.57;;
14849;SDS011;7517;48.400;11.770;2022-09-01T05:18:52;8.70;;;7.90;;
14849;SDS011;7517;48.400;11.770;2022-09-01T05:21:21;9.10;;;8.20;;
14849;SDS011;7517;48.400;11.770;2022-09-01T05:23:52;8.93;;;8.03;;
14849;SDS011;7517;48.400;11.770;2022-09-01T05:26:21;8.80;;;8.00;;
14849;SDS011;7517;48.400;11.770;2022-09-01T05:28:53;8.57;;;7.77;;
14849;SDS011;7517;48.400;11.770;2022-09-01T05:31:25;8.80;;;8.00;;
14849;SDS011;7517;48.400;11.770;2022-09-01T05:34:02;7.80;;;7.17;;
14849;SDS011;7517;48.400;11.770;2022-09-01T05:36:33;7.93;;;7.23;;
14849;SDS011;7517;48.400;11.770;2022-09-01T05:39:03;7.50;;;6.83;;
14849;SDS011;7517;48.400;11.770;2022-09-01T05:41:36;8.37;;;7.57;;
14849;SDS011;7517;48.400;11.770;2022-09-01T05:44:05;8.70;;;7.90;;
14849;SDS011;7517;48.400;11.770;2022-09-01T05:46:33;8.67;;;7.77;;
14849;SDS011;7517;48.400;11.770;2022-09-01T05:49:04;8.17;;;7.47;;
14849;SDS011;7517;48.400;11.770;2022-09-01T05:51:33;8.10;;;7.33;;
14849;SDS011;7517;48.400;11.770;2022-09-01T05:54:02;8.97;;;8.03;;
14849;SDS011;7517;48.400;11.770;2022-09-01T05:56:32;8.37;;;7.57;;
14849;SDS011;7517;48.400;11.770;2022-09-01T05:59:03;7.80;;;7.20;;
14849;SDS011;7517;48.400;11.770;2022-09-01T06:01:30;8.10;;;7.40;;
14849;SDS011;7517;48.400;11.770;2022-09-01T06:03:59;8.33;;;7.63;;
14849;SDS011;7517;48.400;11.770;2022-09-01T06:06:34;8.10;;;7.40;;
14849;SDS011;7517;48.400;11.770;2022-09-01T06:09:08;8.10;;;7.40;;
14849;SDS011;7517;48.400;11.770;2022-09-01T06:11:36;8.90;;;7.97;;
14849;SDS011;7517;48.400;11.770;2022-09-01T06:14:03;8.67;;;7.77;;
14849;SDS011;7517;48.400;11.770;2022-09-01T06:16:32;7.80;;;7.13;;
14849;SDS011;7517;48.400;11.770;2022-09-01T06:19:02;8.20;;;7.37;;
14849;SDS011;7517;48.400;11.770;2022-09-01T06:21:30;8.83;;;7.93;;
14849;SDS011;7517;48.400;11.770;2022-09-01T06:23:57;8.23;;;7.43;;
14849;SDS011;7517;48.400;11.770;2022-09-01T06:26:26;7.73;;;7.00;;
14849;SDS011;7517;48.400;11.770;2022-09-01T06:28:56;7.10;;;6.60;;
14849;SDS011;7517;48.400;11.770;2022-09-01T06:31:27;7.57;;;6.73;;
14849;SDS011;7517;48.400;11.770;2022-09-01T06:33:59;8.20;;;7.40;;
14849;SDS011;7517;48.400;11.770;2022-09-01T06:36:29;8.43;;;7.63;;
14849;SDS011;7517;48.400;11.770;2022-09-01T06:38:57;7.83;;;7.03;;
14849;SDS011;7517;48.400;11.770;2022-09-01T06:41:25;7.33;;;6.63;;
14849;SDS011;7517;48.400;11.770;2022-09-01T06:43:55;8.10;;;7.37;;
14849;SDS011;7517;48.400;11.770;2022-09-01T06:46:25;8.17;;;7.47;;
14849;SDS011;7517;48.400;11.770;2022-09-01T06:48:54;8.13;;;7.33;;
14849;SDS011;7517;48.400;11.770;2022-09-01T06:51:25;7.90;;;7.20;;
14849;SDS011;7517;48.400;11.770;2022-09-01T06:53:54;8.00;;;7.30;;
14849;SDS011;7517;48.400;11.770;2022-09-01T06:56:23;7.57;;;6.80;;
14849;SDS011;7517;48.400;11.770;2022-09-01T06:58:55;7.30;;;6.67;;
14849;SDS011;7517;48.400;11.770;2022-09-01T07:01:23;6.83;;;6.30;;
14849;SDS011;7517;48.400;11.770;2022-09-01T07:03:52;7.20;;;6.60;;
14849;SDS011;7517;48.400;11.770;2022-09-01T07:06:21;7.30;;;6.70;;
14849;SDS011;7517;48.400;11.770;2022-09-01T07:08:52;6.90;;;6.30;;
14849;SDS011;7517;48.400;11.770;2022-09-01T07:11:20;7.23;;;6.63;;
14849;SDS011;7517;48.400;11.770;2022-09-01T07:13:51;6.97;;;6.27;;
14849;SDS011;7517;48.400;11.770;2022-09-01T07:16:21;6.80;;;6.30;;
14849;SDS011;7517;48.400;11.770;2022-09-01T07:18:52;6.77;;;6.20;;
14849;SDS011;7517;48.400;11.770;2022-09-01T07:21:26;6.63;;;6.03;;
14849;SDS011;7517;48.400;11.770;2022-09-01T07:23:56;6.47;;;5.97;;
14849;SDS011;7517;48.400;11.770;2022-09-01T07:26:25;5.63;;;5.13;;
14849;SDS011;7517;48.400;11.770;2022-09-01T07:28:54;6.00;;;5.50;;
14849;SDS011;7517;48.400;11.770;2022-09-01T07:31:23;5.63;;;5.23;;
14849;SDS011;7517;48.400;11.770;2022-09-01T07:33:55;5.73;;;5.23;;
14849;SDS011;7517;48.400;11.770;2022-09-01T07:36:26;5.90;;;5.40;;
14849;SDS011;7517;48.400;11.770;2022-09-01T07:38:54;6.10;;;5.60;;
14849;SDS011;7517;48.400;11.770;2022-09-01T07:41:21;5.70;;;5.20;;
14849;SDS011;7517;48.400;11.770;2022-09-01T07:43:51;5.33;;;4.93;;
14849;SDS011;7517;48.400;11.770;2022-09-01T07:46:21;5.67;;;5.17;;
14849;SDS011;7517;48.400;11.770;2022-09-01T07:48:49;5.57;;;5.17;;
14849;SDS011;7517;48.400;11.770;2022-09-01T07:51:20;5.20;;;4.80;;
14849;SDS011;7517;48.400;11.770;2022-09-01T07:53:50;5.03;;;4.73;;
14849;SDS011;7517;48.400;11.770;2022-09-01T07:56:18;5.47;;;5.00;;
14849;SDS011;7517;48.400;11.770;2022-09-01T07:58:48;4.43;;;4.13;;
14849;SDS011;7517;48.400;11.770;2022-09-01T08:01:17;5.03;;;4.63;;
14849;SDS011;7517;48.400;11.770;2022-09-01T08:03:48;4.80;;;4.50;;
14849;SDS011;7517;48.400;11.770;2022-09-01T08:06:19;4.97;;;4.57;;
14849;SDS011;7517;48.400;11.770;2022-09-01T08:08:52;5.03;;;4.43;;
14849;SDS011;7517;48.400;11.770;2022-09-01T08:11:23;4.80;;;4.47;;
14849;SDS011;7517;48.400;11.770;2022-09-01T08:13:53;5.00;;;4.60;;
14849;SDS011;7517;48.400;11.770;2022-09-01T08:16:23;4.17;;;3.93;;
14849;SDS011;7517;48.400;11.770;2022-09-01T08:18:50;4.50;;;4.10;;
14849;SDS011;7517;48.400;11.770;2022-09-01T08:21:20;7.50;;;3.80;;
14849;SDS011;7517;48.400;11.770;2022-09-01T08:23:49;3.53;;;3.33;;
14849;SDS011;7517;48.400;11.770;2022-09-01T08:26:20;3.70;;;3.43;;
14849;SDS011;7517;48.400;11.770;2022-09-01T08:28:50;4.37;;;3.97;;
14849;SDS011;7517;48.400;11.770;2022-09-01T08:31:20;4.40;;;4.00;;
14849;SDS011;7517;48.400;11.770;2022-09-01T08:33:49;3.70;;;3.50;;
14849;SDS011;7517;48.400;11.770;2022-09-01T08:36:17;3.80;;;3.60;;
14849;SDS011;7517;48.400;11.770;2022-09-01T08:38:44;3.87;;;3.57;;
14849;SDS011;7517;48.400;11.770;2022-09-01T08:41:15;4.43;;;4.03;;
14849;SDS011;7517;48.400;11.770;2022-09-01T08:43:55;4.30;;;4.00;;
14849;SDS011;7517;48.400;11.770;2022-09-01T08:46:36;3.87;;;3.63;;
14849;SDS011;7517;48.400;11.770;2022-09-01T08:49:06;4.67;;;4.37;;
14849;SDS011;7517;48.400;11.770;2022-09-01T08:51:42;4.97;;;4.57;;
14849;SDS011;7517;48.400;11.770;2022-09-01T08:54:17;4.33;;;4.03;;
14849;SDS011;7517;48.400;11.770;2022-09-01T08:56:51;5.53;;;3.70;;
14849;SDS011;7517;48.400;11.770;2022-09-01T08:59:24;4.17;;;3.87;;
14849;SDS011;7517;48.400;11.770;2022-09-01T09:01:55;3.73;;;3.43;;
14849;SDS011;7517;48.400;11.770;2022-09-01T09:04:46;3.80;;;3.47;;
14849;SDS011;7517;48.400;11.770;2022-09-01T09:07:25;3.90;;;3.60;;
14849;SDS011;7517;48.400;11.770;2022-09-01T09:10:13;3.50;;;3.30;;
14849;SDS011;7517;48.400;11.770;2022-09-01T09:12:54;4.03;;;3.77;;
14849;SDS011;7517;48.400;11.770;2022-09-01T09:15:35;3.97;;;3.77;;
14849;SDS011;7517;48.400;11.770;2022-09-01T09:18:12;4.47;;;3.80;;
14849;SDS011;7517;48.400;11.770;2022-09-01T09:20:50;4.50;;;3.37;;
14849;SDS011;7517;48.400;11.770;2022-09-01T09:23:20;4.00;;;3.70;;
14849;SDS011;7517;48.400;11.770;2022-09-01T09:25:55;3.40;;;3.17;;
14849;SDS011;7517;48.400;11.770;2022-09-01T09:28:23;3.40;;;3.10;;
14849;SDS011;7517;48.400;11.770;2022-09-01T09:30:51;2.83;;;2.63;;
14849;SDS011;7517;48.400;11.770;2022-09-01T09:33:58;2.20;;;2.10;;
14849;SDS011;7517;48.400;11.770;2022-09-01T09:36:29;2.07;;;1.97;;
14849;SDS011;7517;48.400;11.770;2022-09-01T09:39:05;3.70;;;2.30;;
14849;SDS011;7517;48.400;11.770;2022-09-01T09:41:37;2.63;;;2.23;;
14849;SDS011;7517;48.400;11.770;2022-09-01T09:44:15;2.20;;;2.10;;
14849;SDS011;7517;48.400;11.770;2022-09-01T09:46:50;2.47;;;2.30;;
14849;SDS011;7517;48.400;11.770;2022-09-01T09:49:18;2.13;;;2.03;;
14849;SDS011;7517;48.400;11.770;2022-09-01T09:51:50;2.20;;;2.10;;
14849;SDS011;7517;48.400;11.770;2022-09-01T09:54:21;2.03;;;1.93;;
14849;SDS011;7517;48.400;11.770;2022-09-01T09:59:40;1.70;;;1.60;;
14849;SDS011;7517;48.400;11.770;2022-09-01T10:02:16;2.07;;;1.80;;
14849;SDS011;7517;48.400;11.770;2022-09-01T10:04:56;2.47;;;1.90;;
14849;SDS011;7517;48.400;11.770;2022-09-01T10:07:29;1.83;;;1.67;;
14849;SDS011;7517;48.400;11.770;2022-09-01T10:10:01;1.80;;;1.70;;
14849;SDS011;7517;48.400;11.770;2022-09-01T10:12:32;1.57;;;1.47;;
14849;SDS011;7517;48.400;11.770;2022-09-01T10:15:02;1.40;;;1.30;;
14849;SDS011;7517;48.400;11.770;2022-09-01T10:17:33;1.50;;;1.37;;
14849;SDS011;7517;48.400;11.770;2022-09-01T10:20:07;1.50;;;1.20;;
14849;SDS011;7517;48.400;11.770;2022-09-01T10:22:41;1.43;;;1.33;;
14849;SDS011;7517;48.400;11.770;2022-09-01T10:25:10;1.20;;;1.10;;
14849;SDS011;7517;48.400;11.770;2022-09-01T10:27:46;1.40;;;1.30;;
14849;SDS011;7517;48.400;11.770;2022-09-01T10:30:19;1.50;;;1.27;;
14849;SDS011;7517;48.400;11.770;2022-09-01T10:32:48;3.83;;;1.50;;
14849;SDS011;7517;48.400;11.770;2022-09-01T10:35:20;1.03;;;1.03;;
14849;SDS011;7517;48.400;11.770;2022-09-01T10:37:51;1.30;;;1.20;;
14849;SDS011;7517;48.400;11.770;2022-09-01T10:40:34;1.20;;;1.20;;
14849;SDS011;7517;48.400;11.770;2022-09-01T10:43:26;1.43;;;1.33;;
14849;SDS011;7517;48.400;11.770;2022-09-01T10:46:09;1.30;;;1.30;;
14849;SDS011;7517;48.400;11.770;2022-09-01T10:49:17;1.30;;;1.20;;
14849;SDS011;7517;48.400;11.770;2022-09-01T10:55:22;1.20;;;1.10;;
14849;SDS011;7517;48.400;11.770;2022-09-01T10:57:57;1.77;;;1.30;;
14849;SDS011;7517;48.400;11.770;2022-09-01T11:00:46;1.10;;;1.10;;
14849;SDS011;7517;48.400;11.770;2022-09-01T11:03:33;1.17;;;1.10;;
14849;SDS011;7517;48.400;11.770;2022-09-01T11:06:31;1.07;;;1.07;;
14849;SDS011;7517;48.400;11.770;2022-09-01T11:09:27;3.13;;;1.20;;
14849;SDS011;7517;48.400;11.770;2022-09-01T11:12:06;1.03;;;1.03;;
14849;SDS011;7517;48.400;11.770;2022-09-01T11:14:59;1.10;;;1.10;;
14849;SDS011;7517;48.400;11.770;2022-09-01T11:17:30;1.27;;;1.17;;
14849;SDS011;7517;48.400;11.770;2022-09-01T11:20:07;1.43;;;1.33;;
14849;SDS011;7517;48.400;11.770;2022-09-01T11:22:57;1.20;;;1.10;;
14849;SDS011;7517;48.400;11.770;2022-09-01T11:25:39;1.00;;;1.00;;
14849;SDS011;7517;48.400;11.770;2022-09-01T11:31:19;1.30;;;1.20;;
14849;SDS011;7517;48.400;11.770;2022-09-01T11:34:08;0.93;;;0.90;;
14849;SDS011;7517;48.400;11.770;2022-09-01T11:36:50;1.07;;;1.07;;
14849;SDS011;7517;48.400;11.770;2022-09-01T11:39:30;1.20;;;1.10;;
14849;SDS011;7517;48.400;11.770;2022-09-01T11:42:16;1.37;;;1.00;;
14849;SDS011;7517;48.400;11.770;2022-09-01T11:44:50;0.80;;;0.80;;
14849;SDS011;7517;48.400;11.770;2022-09-01T11:47:25;2.43;;;1.17;;
14849;SDS011;7517;48.400;11.770;2022-09-01T11:50:02;1.60;;;1.13;;
14849;SDS011;7517;48.400;11.770;2022-09-01T11:52:35;1.00;;;1.00;;
14849;SDS011;7517;48.400;11.770;2022-09-01T11:55:05;0.80;;;0.80;;
14849;SDS011;7517;48.400;11.770;2022-09-01T11:57:36;1.00;;;1.00;;
14849;SDS011;7517;48.400;11.770;2022-09-01T12:00:05;0.83;;;0.83;;
14849;SDS011;7517;48.400;11.770;2022-09-01T12:02:41;1.10;;;1.10;;
14849;SDS011;7517;48.400;11.770;2022-09-01T12:05:22;1.30;;;0.90;;
14849;SDS011;7517;48.400;11.770;2022-09-01T12:07:57;1.10;;;1.00;;
14849;SDS011;7517;48.400;11.770;2022-09-01T12:10:29;1.20;;;1.20;;
14849;SDS011;7517;48.400;11.770;2022-09-01T12:13:00;1.20;;;1.10;;
14849;SDS011;7517;48.400;11.770;2022-09-01T12:15:31;1.53;;;0.93;;
14849;SDS011;7517;48.400;11.770;2022-09-01T12:18:11;1.10;;;1.10;;
14849;SDS011;7517;48.400;11.770;2022-09-01T12:20:43;2.70;;;1.10;;
14849;SDS011;7517;48.400;11.770;2022-09-01T12:23:18;1.17;;;1.00;;
14849;SDS011;7517;48.400;11.770;2022-09-01T12:25:52;1.33;;;1.20;;
14849;SDS011;7517;48.400;11.770;2022-09-01T12:28:22;0.83;;;0.83;;
14849;SDS011;7517;48.400;11.770;2022-09-01T12:30:51;1.10;;;1.10;;
14849;SDS011;7517;48.400;11.770;2022-09-01T12:33:20;0.80;;;0.80;;
14849;SDS011;7517;48.400;11.770;2022-09-01T12:35:48;0.90;;;0.80;;
14849;SDS011;7517;48.400;11.770;2022-09-01T12:38:28;0.80;;;0.80;;
14849;SDS011;7517;48.400;11.770;2022-09-01T12:40:56;0.57;;;0.57;;
14849;SDS011;7517;48.400;11.770;2022-09-01T12:43:27;1.00;;;1.00;;
14849;SDS011;7517;48.400;11.770;2022-09-01T12:45:59;0.93;;;0.70;;
14849;SDS011;7517;48.400;11.770;2022-09-01T12:48:31;0.93;;;0.93;;
14849;SDS011;7517;48.400;11.770;2022-09-01T12:51:02;1.10;;;1.00;;
14849;SDS011;7517;48.400;11.770;2022-09-01T12:53:48;0.80;;;0.80;;
14849;SDS011;7517;48.400;11.770;2022-09-01T12:56:28;0.80;;;0.70;;
14849;SDS011;7517;48.400;11.770;2022-09-01T12:59:06;1.43;;;0.73;;
14849;SDS011;7517;48.400;11.770;2022-09-01T13:01:37;0.77;;;0.77;;
14849;SDS011;7517;48.400;11.770;2022-09-01T13:06:55;2.63;;;0.83;;
14849;SDS011;7517;48.400;11.770;2022-09-01T13:09:29;0.80;;;0.80;;
14849;SDS011;7517;48.400;11.770;2022-09-01T13:12:10;0.80;;;0.70;;
14849;SDS011;7517;48.400;11.770;2022-09-01T13:14:42;0.80;;;0.80;;
14849;SDS011;7517;48.400;11.770;2022-09-01T13:17:10;0.80;;;0.80;;
14849;SDS011;7517;48.400;11.770;2022-09-01T13:19:37;1.83;;;0.87;;
14849;SDS011;7517;48.400;11.770;2022-09-01T13:22:05;1.10;;;0.80;;
14849;SDS011;7517;48.400;11.770;2022-09-01T13:24:33;1.90;;;0.80;;
14849;SDS011;7517;48.400;11.770;2022-09-01T13:27:01;0.60;;;0.60;;
14849;SDS011;7517;48.400;11.770;2022-09-01T13:29:29;0.90;;;0.90;;
14849;SDS011;7517;48.400;11.770;2022-09-01T13:31:56;0.90;;;0.70;;
14849;SDS011;7517;48.400;11.770;2022-09-01T13:34:23;2.50;;;0.70;;
14849;SDS011;7517;48.400;11.770;2022-09-01T13:36:50;1.03;;;0.70;;
14849;SDS011;7517;48.400;11.770;2022-09-01T13:39:25;0.90;;;0.90;;
14849;SDS011;7517;48.400;11.770;2022-09-01T13:41:54;0.60;;;0.60;;
14849;SDS011;7517;48.400;11.770;2022-09-01T13:44:21;0.63;;;0.63;;
14849;SDS011;7517;48.400;11.770;2022-09-01T13:46:48;0.70;;;0.70;;
14849;SDS011;7517;48.400;11.770;2022-09-01T13:49:16;0.73;;;0.60;;
14849;SDS011;7517;48.400;11.770;2022-09-01T13:51:49;0.50;;;0.50;;
14849;SDS011;7517;48.400;11.770;2022-09-01T13:54:17;0.80;;;0.73;;
14849;SDS011;7517;48.400;11.770;2022-09-01T13:56:45;0.70;;;0.70;;
14849;SDS011;7517;48.400;11.770;2022-09-01T13:59:14;0.50;;;0.50;;
14849;SDS011;7517;48.400;11.770;2022-09-01T14:01:42;0.73;;;0.73;;
14849;SDS011;7517;48.400;11.770;2022-09-01T14:04:10;0.80;;;0.80;;
14849;SDS011;7517;48.400;11.770;2022-09-01T14:06:38;0.77;;;0.77;;
14849;SDS011;7517;48.400;11.770;2022-09-01T14:09:06;2.33;;;0.80;;
14849;SDS011;7517;48.400;11.770;2022-09-01T14:11:33;0.77;;;0.70;;
14849;SDS011;7517;48.400;11.770;2022-09-01T14:14:00;0.73;;;0.73;;
14849;SDS011;7517;48.400;11.770;2022-09-01T14:16:36;0.87;;;0.80;;
14849;SDS011;7517;48.400;11.770;2022-09-01T14:19:04;0.60;;;0.60;;
14849;SDS011;7517;48.400;11.770;2022-09-01T14:21:32;0.50;;;0.50;;
14849;SDS011;7517;48.400;11.770;2022-09-01T14:23:59;1.23;;;0.60;;
14849;SDS011;7517;48.400;11.770;2022-09-01T14:26:27;0.60;;;0.60;;
14849;SDS011;7517;48.400;11.770;2022-09-01T14:28:54;0.70;;;0.70;;
14849;SDS011;7517;48.400;11.770;2022-09-01T14:31:22;0.77;;;0.60;;
14849;SDS011;7517;48.400;11.770;2022-09-01T14:33:50;0.90;;;0.90;;
14849;SDS011;7517;48.400;11.770;2022-09-01T14:36:19;0.93;;;0.70;;
14849;SDS011;7517;48.400;11.770;2022-09-01T14:38:51;0.70;;;0.70;;
14849;SDS011;7517;48.400;11.770;2022-09-01T14:41:20;0.70;;;0.50;;
14849;SDS011;7517;48.400;11.770;2022-09-01T14:43:49;0.70;;;0.70;;
14849;SDS011;7517;48.400;11.770;2022-09-01T14:46:17;0.70;;;0.70;;
14849;SDS011;7517;48.400;11.770;2022-09-01T14:48:45;0.50;;;0.50;;
14849;SDS011;7517;48.400;11.770;2022-09-01T14:51:20;0.63;;;0.63;;
14849;SDS011;7517;48.400;11.770;2022-09-01T14:53:49;0.57;;;0.57;;
14849;SDS011;7517;48.400;11.770;2022-09-01T14:56:19;0.50;;;0.50;;
14849;SDS011;7517;48.400;11.770;2022-09-01T14:58:47;0.70;;;0.60;;
14849;SDS011;7517;48.400;11.770;2022-09-01T15:01:17;0.50;;;0.50;;
14849;SDS011;7517;48.400;11.770;2022-09-01T15:03:47;1.03;;;0.70;;
14849;SDS011;7517;48.400;11.770;2022-09-01T15:06:15;0.70;;;0.70;;
14849;SDS011;7517;48.400;11.770;2022-09-01T15:08:46;0.70;;;0.70;;
14849;SDS011;7517;48.400;11.770;2022-09-01T15:11:14;1.07;;;0.60;;
14849;SDS011;7517;48.400;11.770;2022-09-01T15:13:48;0.70;;;0.70;;
14849;SDS011;7517;48.400;11.770;2022-09-01T15:16:17;0.60;;;0.60;;
14849;SDS011;7517;48.400;11.770;2022-09-01T15:18:49;0.70;;;0.70;;
14849;SDS011;7517;48.400;11.770;2022-09-01T15:21:19;0.50;;;0.50;;
14849;SDS011;7517;48.400;11.770;2022-09-01T15:23:53;0.90;;;0.90;;
14849;SDS011;7517;48.400;11.770;2022-09-01T15:26:20;0.50;;;0.50;;
14849;SDS011;7517;48.400;11.770;2022-09-01T15:28:48;0.53;;;0.53;;
14849;SDS011;7517;48.400;11.770;2022-09-01T15:31:17;0.53;;;0.53;;